Time;durP1;ratioP1;P1;durP2;ratioP2;P2;SDS_P1;SDS_P2;PMS_P1;PMS_P2;Temp;Humidity;BMP_temperature;BMP_pressure;BME280_temperature;BME280_humidity;BME280_pressure;Samples;Min_cycle;Max_cycle;Signal;HPM_P1;HPM_P2
2022/05/14 00:01:40;;;;;;;;;15.00;10.33;;;;;18.68;76.05;99583.53;6304221;20;3511662;-63
2022/05/14 00:04:09;;;;;;;;;11.00;10.00;;;;;18.73;75.20;99584.78;6315706;20;2781508;-62
2022/05/14 00:06:39;;;;;;;;;10.40;9.00;;;;;18.64;76.04;99589.28;6302544;20;2772119;-62
2022/05/14 00:09:10;;;;;;;;;12.00;12.00;;;;;18.70;75.51;99592.41;6301867;20;2808567;-62
2022/05/14 00:14:42;;;;;;;;;7.00;7.00;;;;;18.56;76.48;99586.44;6307454;20;2739886;-62
2022/05/14 00:17:10;;;;;;;;;13.00;12.00;;;;;18.63;75.88;99598.41;6279882;20;3520008;-63
2022/05/14 00:19:38;;;;;;;;;9.50;9.50;;;;;18.57;76.29;99593.56;6315713;20;2768999;-63
2022/05/14 00:22:06;;;;;;;;;11.00;11.00;;;;;18.54;75.87;99596.59;6289025;20;2784771;-62
2022/05/14 00:24:34;;;;;;;;;11.00;11.00;;;;;18.67;75.45;99603.56;6287119;20;2791927;-62
2022/05/14 00:27:03;;;;;;;;;11.33;10.67;;;;;18.58;76.00;99600.72;6282441;20;2789942;-62
2022/05/14 00:29:31;;;;;;;;;10.50;10.50;;;;;18.57;75.64;99604.47;6315460;20;2789829;-62
2022/05/14 00:31:59;;;;;;;;;10.00;9.67;;;;;18.46;76.24;99610.06;6282934;20;3492932;-62
2022/05/14 00:34:28;;;;;;;;;13.00;13.00;;;;;18.50;76.67;99608.75;6311469;20;3525250;-61
2022/05/14 00:37:00;;;;;;;;;12.67;11.00;;;;;18.45;76.74;99619.22;6312528;20;3517983;-63
2022/05/14 00:39:28;;;;;;;;;12.00;11.00;;;;;18.43;76.77;99613.94;6312672;20;2791988;-62
2022/05/14 00:41:57;;;;;;;;;11.33;11.00;;;;;18.39;76.55;99611.66;6318146;20;2788957;-63
2022/05/14 00:44:25;;;;;;;;;10.67;10.67;;;;;18.33;77.09;99607.66;6311077;20;3514949;-62
2022/05/14 00:47:12;;;;;;;;;13.00;12.00;;;;;18.32;77.28;99607.81;6308752;20;3520012;-63
2022/05/14 00:49:41;;;;;;;;;13.00;12.00;;;;;18.42;76.86;99608.63;6314441;20;2797155;-63
2022/05/14 00:52:20;;;;;;;;;11.00;11.00;;;;;18.23;77.64;99612.25;6281674;20;2796076;-63
2022/05/14 00:55:00;;;;;;;;;11.00;11.00;;;;;18.15;78.16;99604.81;6288180;20;2789937;-62
2022/05/14 00:57:36;;;;;;;;;14.00;14.00;;;;;18.25;77.73;99614.84;6284237;20;2798199;-63
2022/05/14 01:00:19;;;;;;;;;12.00;12.00;;;;;18.12;78.56;99610.56;6281557;20;2808616;-62
2022/05/14 01:02:49;;;;;;;;;13.67;13.67;;;;;18.09;78.55;99615.41;6310589;20;3526311;-63
2022/05/14 01:05:20;;;;;;;;;13.00;13.00;;;;;18.08;78.91;99614.56;6314200;20;2809651;-62
2022/05/14 01:07:52;;;;;;;;;13.50;12.50;;;;;18.04;79.07;99621.28;6311017;20;2487766;-62
2022/05/14 01:10:32;;;;;;;;;11.00;11.00;;;;;17.95;79.79;99616.72;6283226;20;2785825;-63
2022/05/14 01:13:03;;;;;;;;;14.67;12.33;;;;;17.83;80.11;99615.16;6277035;20;3517926;-63
2022/05/14 01:15:49;;;;;;;;;14.00;14.00;;;;;17.97;79.68;99622.88;6283765;20;2800251;-62
2022/05/14 01:18:22;;;;;;;;;11.33;11.33;;;;;17.75;80.34;99623.97;6311489;20;3529418;-63
2022/05/14 01:20:58;;;;;;;;;14.00;12.67;;;;;17.69;81.10;99627.25;6279639;20;3513773;-62
2022/05/14 01:26:52;;;;;;;;;17.00;14.33;;;;;17.68;81.80;99633.69;6281613;20;3541907;-63
2022/05/14 01:29:24;;;;;;;;;13.67;12.67;;;;;17.67;81.81;99627.41;6279496;20;3515869;-63
2022/05/14 01:31:55;;;;;;;;;14.67;13.33;;;;;17.65;81.63;99629.38;6292065;20;3522255;-64
2022/05/14 01:34:34;;;;;;;;;15.00;13.50;;;;;17.74;81.84;99624.97;6276541;20;2689874;-64
2022/05/14 01:37:03;;;;;;;;;18.33;13.33;;;;;17.68;81.48;99629.09;6309556;20;3538923;-65
2022/05/14 01:39:32;;;;;;;;;15.00;13.67;;;;;17.77;81.10;99628.28;6279512;20;3527478;-63
2022/05/14 01:42:00;;;;;;;;;16.50;16.50;;;;;17.66;81.86;99625.66;6311121;20;2485663;-63
2022/05/14 01:44:29;;;;;;;;;12.00;12.00;;;;;17.57;81.84;99626.53;6280028;20;3526303;-64
2022/05/14 01:46:57;;;;;;;;;15.50;15.50;;;;;17.64;81.89;99622.25;6308353;20;2818019;-64
2022/05/14 01:49:26;;;;;;;;;13.67;13.67;;;;;17.47;82.76;99615.66;6278867;20;3533666;-63
2022/05/14 01:51:56;;;;;;;;;11.67;11.00;;;;;17.44;82.82;99625.94;6276742;20;3513748;-62
2022/05/14 01:54:25;;;;;;;;;16.67;14.67;;;;;17.43;82.86;99624.19;6311775;20;3545066;-63
2022/05/14 01:56:54;;;;;;;;;15.50;15.50;;;;;17.63;82.49;99625.94;6276952;20;2807550;-63
2022/05/14 01:59:25;;;;;;;;;14.67;13.00;;;;;17.54;82.72;99621.38;6275291;20;3535661;-63
2022/05/14 02:01:54;;;;;;;;;13.00;13.00;;;;;17.42;83.05;99617.06;6310579;20;3522219;-63
2022/05/14 02:04:23;;;;;;;;;15.00;15.00;;;;;17.44;82.94;99615.94;6310590;20;3534015;-62
2022/05/14 02:06:52;;;;;;;;;15.00;15.00;;;;;17.34;83.39;99620.47;6308919;20;3539826;-63
2022/05/14 02:09:21;;;;;;;;;15.50;14.50;;;;;17.22;84.21;99622.47;6276934;20;2686732;-62
2022/05/14 02:11:50;;;;;;;;;14.33;14.33;;;;;17.24;84.53;99630.44;6310532;20;3534037;-63
2022/05/14 02:14:19;;;;;;;;;15.67;14.33;;;;;17.40;83.55;99628.03;6313301;20;2805495;-63
2022/05/14 02:16:47;;;;;;;;;17.50;16.00;;;;;17.29;84.00;99628.19;6309066;20;2829482;-62
2022/05/14 02:19:17;;;;;;;;;18.33;16.33;;;;;17.15;84.63;99632.13;6275726;20;2815904;-63
2022/05/14 02:21:45;;;;;;;;;16.00;16.00;;;;;17.22;84.62;99633.31;6307841;20;3562890;-62
2022/05/14 02:24:14;;;;;;;;;16.00;16.00;;;;;17.19;84.75;99628.13;6276543;20;3557647;-63
2022/05/14 02:26:42;;;;;;;;;16.00;14.00;;;;;17.13;84.88;99630.56;6278467;20;2483729;-62
2022/05/14 02:29:10;;;;;;;;;17.33;16.00;;;;;17.02;86.09;99626.09;6280205;20;2836715;-63
2022/05/14 02:31:39;;;;;;;;;15.00;13.33;;;;;17.07;86.08;99624.69;6309300;20;3539841;-61
2022/05/14 02:34:07;;;;;;;;;17.00;15.00;;;;;17.00;86.40;99628.94;6279224;20;3538795;-63
2022/05/14 02:36:36;;;;;;;;;18.50;15.50;;;;;17.01;86.33;99633.38;6309709;20;2485699;-62
2022/05/14 02:39:05;;;;;;;;;14.33;14.33;;;;;17.09;85.61;99630.00;6276609;20;3529401;-63
2022/05/14 02:41:32;;;;;;;;;15.00;15.00;;;;;17.03;86.34;99634.09;6309135;20;2487859;-62
2022/05/14 02:44:01;;;;;;;;;19.00;19.00;;;;;16.95;86.64;99630.34;6278578;20;3553430;-62
2022/05/14 02:46:29;;;;;;;;;19.00;18.00;;;;;16.95;86.70;99624.91;6276540;20;2491938;-63
2022/05/14 02:48:57;;;;;;;;;15.00;15.00;;;;;16.93;86.69;99635.03;6279978;20;2809665;-62
2022/05/14 02:51:26;;;;;;;;;17.67;16.00;;;;;16.96;86.67;99632.09;6277554;20;3555573;-62
2022/05/14 02:53:54;;;;;;;;;17.00;17.00;;;;;16.83;87.10;99638.59;6275255;20;2491964;-62
2022/05/14 02:56:22;;;;;;;;;16.67;16.00;;;;;16.78;87.76;99645.41;6281392;20;2829425;-62
2022/05/14 02:59:09;;;;;;;;;16.00;15.00;;;;;16.72;88.00;99635.06;6307682;20;3538770;-62
2022/05/14 03:01:47;;;;;;;;;20.50;19.00;;;;;16.67;88.26;99643.63;6276472;20;2834726;-62
2022/05/14 03:04:30;;;;;;;;;19.00;18.00;;;;;16.66;88.63;99641.88;6278471;20;2827905;-62
2022/05/14 03:06:59;;;;;;;;;15.67;15.67;;;;;16.74;88.36;99639.34;6282645;20;2813827;-62
2022/05/14 03:09:28;;;;;;;;;17.50;15.00;;;;;16.62;88.62;99645.88;6309226;20;2817052;-62
2022/05/14 03:11:57;;;;;;;;;19.00;19.00;;;;;16.78;87.91;99656.25;6276453;20;2826443;-61
2022/05/14 03:14:24;;;;;;;;;15.50;15.00;;;;;16.70;88.30;99653.34;6279028;20;2487892;-62
2022/05/14 03:16:53;;;;;;;;;19.50;18.50;;;;;16.50;88.80;99660.47;6274416;20;2830585;-61
2022/05/14 03:19:22;;;;;;;;;19.00;18.00;;;;;16.53;88.96;99660.22;6277394;20;2823262;-63
2022/05/14 03:21:51;;;;;;;;;19.00;15.67;;;;;16.57;89.39;99654.41;6279114;20;3561736;-62
2022/05/14 03:24:20;;;;;;;;;18.00;17.00;;;;;16.34;90.21;99664.50;6274195;20;2498235;-62
2022/05/14 03:26:49;;;;;;;;;17.00;15.00;;;;;16.64;89.10;99666.44;6275330;20;2809679;-62
2022/05/14 03:29:17;;;;;;;;;17.50;17.50;;;;;16.67;88.90;99671.59;6271851;20;2483616;-62
2022/05/14 03:31:47;;;;;;;;;17.33;17.00;;;;;16.54;89.15;99675.50;6277907;20;2829506;-62
2022/05/14 03:34:16;;;;;;;;;18.50;16.00;;;;;16.57;89.23;99670.66;6308001;20;2500334;-62
2022/05/14 03:36:44;;;;;;;;;19.00;18.00;;;;;16.59;88.96;99678.66;6278992;20;2835259;-62
2022/05/14 03:39:13;;;;;;;;;16.00;16.00;;;;;16.51;89.30;99681.16;6277698;20;3563870;-62
2022/05/14 03:41:42;;;;;;;;;17.00;16.00;;;;;16.74;88.62;99681.88;6278953;20;2653128;-62
2022/05/14 03:44:11;;;;;;;;;16.00;16.00;;;;;16.72;88.26;99683.84;6306363;20;2829463;-62
2022/05/14 03:46:41;;;;;;;;;18.00;18.00;;;;;16.73;88.72;99689.16;6278184;20;2829454;-62
2022/05/14 03:49:10;;;;;;;;;16.00;16.00;;;;;16.52;89.40;99680.19;6277514;20;3563823;-62
2022/05/14 03:51:38;;;;;;;;;19.00;19.00;;;;;16.75;88.72;99689.88;6281607;20;2833633;-62
2022/05/14 03:54:07;;;;;;;;;19.00;17.50;;;;;16.67;88.82;99695.13;6281679;20;2838962;-62
2022/05/14 03:56:39;;;;;;;;;18.67;18.67;;;;;16.64;89.16;99704.38;6278802;20;2483684;-62
2022/05/14 03:59:09;;;;;;;;;17.50;15.00;;;;;16.79;88.18;99704.06;6312855;20;2825320;-62
2022/05/14 04:01:37;;;;;;;;;17.50;17.00;;;;;16.71;88.51;99704.69;6283008;20;2483640;-62
2022/05/14 04:04:06;;;;;;;;;18.67;18.00;;;;;16.85;87.63;99715.25;6285220;20;3570067;-62
2022/05/14 04:06:35;;;;;;;;;19.33;19.33;;;;;17.20;85.90;99703.13;6314019;20;3575250;-63
2022/05/14 04:09:03;;;;;;;;;20.50;17.50;;;;;17.25;85.14;99709.00;6280317;20;2500252;-62
2022/05/14 04:11:32;;;;;;;;;17.00;17.00;;;;;17.64;83.79;99714.56;6279725;20;3561736;-62
2022/05/14 04:14:02;;;;;;;;;17.50;16.50;;;;;17.68;83.07;99713.28;6280970;20;2831492;-63
2022/05/14 04:16:30;;;;;;;;;16.50;16.00;;;;;17.69;82.29;99723.16;6281835;20;2829439;-62
2022/05/14 04:18:58;;;;;;;;;17.00;16.00;;;;;17.97;80.98;99726.09;6283195;20;2491948;-61
2022/05/14 04:21:27;;;;;;;;;22.00;19.00;;;;;17.68;81.97;99732.28;6281033;20;2836103;-62
2022/05/14 04:23:55;;;;;;;;;18.50;17.50;;;;;18.25;80.29;99746.16;6282967;20;2830509;-61
2022/05/14 04:26:24;;;;;;;;;15.33;13.67;;;;;17.95;79.87;99739.81;6285022;20;3539795;-62
2022/05/14 04:28:53;;;;;;;;;20.67;19.00;;;;;17.61;82.21;99747.41;6317893;20;3567929;-62
2022/05/14 04:31:22;;;;;;;;;18.00;18.00;;;;;17.51;82.45;99741.13;6275751;20;2825250;-62
2022/05/14 04:33:51;;;;;;;;;21.33;17.33;;;;;17.49;82.73;99741.25;6278847;20;3563783;-62
2022/05/14 04:36:19;;;;;;;;;19.50;17.00;;;;;17.57;82.29;99746.00;6281485;20;2825300;-62
2022/05/14 04:38:48;;;;;;;;;19.00;17.00;;;;;17.46;83.17;99748.81;6281091;20;2835749;-62
2022/05/14 04:41:17;;;;;;;;;16.50;15.50;;;;;17.53;83.10;99749.97;6280744;20;2821144;-62
2022/05/14 04:43:46;;;;;;;;;18.00;18.00;;;;;17.67;82.60;99757.75;6280396;20;2821154;-63
2022/05/14 04:46:15;;;;;;;;;18.67;18.67;;;;;17.90;81.93;99765.69;6280258;20;2500270;-63
2022/05/14 04:48:43;;;;;;;;;16.00;16.00;;;;;17.78;81.71;99757.63;6311781;20;2829580;-62
2022/05/14 04:51:12;;;;;;;;;17.33;14.67;;;;;17.94;81.55;99758.97;6281073;20;3552336;-62
2022/05/14 04:53:41;;;;;;;;;15.50;15.50;;;;;18.01;80.61;99753.84;6279973;20;2819133;-61
2022/05/14 04:56:09;;;;;;;;;17.00;17.00;;;;;18.06;80.54;99752.44;6282547;20;2837774;-62
2022/05/14 04:58:37;;;;;;;;;17.50;14.00;;;;;18.35;79.05;99760.63;6279450;20;2489885;-62
2022/05/14 05:01:06;;;;;;;;;14.00;14.00;;;;;18.72;77.15;99753.56;6281703;20;3526291;-62
2022/05/14 05:03:34;;;;;;;;;13.00;13.00;;;;;18.80;76.74;99765.50;6310691;20;2491927;-62
2022/05/14 05:06:06;;;;;;;;;18.50;14.00;;;;;18.76;76.46;99765.91;6282799;20;2491993;-62
2022/05/14 05:08:35;;;;;;;;;15.00;15.00;;;;;19.07;75.40;99780.19;6281770;20;2806504;-62
2022/05/14 05:11:04;;;;;;;;;16.67;15.00;;;;;19.12;74.30;99779.75;6274497;20;3545025;-62
2022/05/14 05:13:35;;;;;;;;;13.33;13.00;;;;;19.05;74.24;99782.19;6282378;20;3528381;-62
2022/05/14 05:16:04;;;;;;;;;12.33;12.00;;;;;19.43;73.26;99780.34;6280187;20;3537812;-62
2022/05/14 05:18:33;;;;;;;;;13.67;12.33;;;;;19.63;72.48;99781.13;6278669;20;3531462;-62
2022/05/14 05:21:02;;;;;;;;;15.00;14.00;;;;;19.47;72.86;99790.81;6281105;20;2806498;-63
2022/05/14 05:23:31;;;;;;;;;13.33;13.33;;;;;19.93;71.89;99789.06;6281170;20;3531641;-62
2022/05/14 05:26:00;;;;;;;;;13.33;11.67;;;;;20.14;69.61;99796.97;6280335;20;3530492;-62
2022/05/14 05:28:28;;;;;;;;;14.50;12.00;;;;;19.99;69.16;99795.75;6279953;20;2483605;-61
2022/05/14 05:30:57;;;;;;;;;14.33;13.00;;;;;20.31;68.96;99811.63;6277603;20;3534694;-62
2022/05/14 05:33:26;;;;;;;;;15.33;12.00;;;;;20.20;69.28;99806.41;6278289;20;3526303;-62
2022/05/14 05:35:54;;;;;;;;;15.50;12.00;;;;;20.30;68.67;99809.03;6276295;20;2492055;-63
2022/05/14 05:38:23;;;;;;;;;12.67;12.33;;;;;20.47;68.07;99805.47;6279123;20;3516326;-62
2022/05/14 05:40:52;;;;;;;;;12.00;12.00;;;;;20.74;67.51;99814.63;6277999;20;2788818;-62
2022/05/14 05:43:21;;;;;;;;;12.33;12.33;;;;;20.74;67.76;99814.63;6309595;20;3530770;-62
2022/05/14 05:45:50;;;;;;;;;12.50;11.00;;;;;20.70;66.47;99819.56;6283388;20;2789887;-62
2022/05/14 05:48:19;;;;;;;;;13.00;13.00;;;;;20.81;66.01;99816.56;6282490;20;2809668;-62
2022/05/14 05:50:48;;;;;;;;;10.33;10.33;;;;;20.80;65.82;99820.34;6307965;20;3510693;-61
2022/05/14 05:53:17;;;;;;;;;13.00;13.00;;;;;20.77;66.31;99826.09;6278895;20;2487787;-62
2022/05/14 05:58:38;;;;;;;;;12.00;12.00;;;;;20.78;65.46;99830.53;6321906;20;1950315;-61
2022/05/14 06:01:06;;;;;;;;;12.33;12.33;;;;;21.20;65.10;99827.13;6280159;20;3541888;-61
2022/05/14 06:03:35;;;;;;;;;13.33;11.67;;;;;21.34;62.31;99833.03;6280387;20;3512781;-61
2022/05/14 06:06:03;;;;;;;;;10.33;10.33;;;;;21.44;61.23;99833.81;6317351;20;2793016;-61
2022/05/14 06:08:32;;;;;;;;;10.33;10.00;;;;;21.65;60.78;99826.09;6314889;20;2784790;-61
2022/05/14 06:11:01;;;;;;;;;8.00;8.00;;;;;21.82;61.25;99826.16;6308358;20;2747147;-62
2022/05/14 06:13:29;;;;;;;;;14.33;14.33;;;;;21.65;58.97;99837.00;6308107;20;3541966;-57
2022/05/14 06:16:00;;;;;;;;;12.00;12.00;;;;;21.77;59.24;99834.00;6279899;20;2483617;-56
2022/05/14 06:18:28;;;;;;;;;10.00;10.00;;;;;21.57;57.92;99834.25;6316300;20;2788900;-56
2022/05/14 06:20:57;;;;;;;;;10.00;10.00;;;;;21.64;57.95;99832.59;6318481;20;2666933;-55
2022/05/14 06:23:25;;;;;;;;;10.00;10.00;;;;;22.08;57.46;99837.88;6309932;20;3507636;-53
2022/05/14 06:25:54;;;;;;;;;11.33;11.00;;;;;21.76;58.96;99832.28;6308661;20;2798245;-56
2022/05/14 06:28:22;;;;;;;;;13.00;11.33;;;;;22.08;57.66;99835.16;6309149;20;3525216;-54
2022/05/14 06:30:51;;;;;;;;;11.33;10.00;;;;;22.65;56.58;99839.13;6307518;20;3508590;-51
2022/05/14 06:33:20;;;;;;;;;11.33;9.00;;;;;22.82;54.63;99834.50;6315725;20;2769041;-53
2022/05/14 06:35:49;;;;;;;;;12.33;10.00;;;;;23.00;52.17;99841.56;6309032;20;3514844;-53
2022/05/14 06:38:20;;;;;;;;;11.60;10.40;;;;;23.49;52.92;99848.06;6339483;20;2797383;-52
2022/05/14 06:40:51;;;;;;;;;19.00;11.00;;;;;23.92;52.63;99848.66;6280125;20;2816953;-50
2022/05/14 06:43:19;;;;;;;;;11.00;9.00;;;;;23.74;49.23;99844.25;6284155;20;2764833;-51
2022/05/14 06:45:48;;;;;;;;;9.00;9.00;;;;;23.77;48.71;99856.75;6320161;20;2755505;-55
2022/05/14 06:48:17;;;;;;;;;9.80;9.60;;;;;23.44;48.20;99846.69;6339274;20;2774229;-52
2022/05/14 06:50:50;;;;;;;;;10.00;8.60;;;;;24.24;46.53;99859.47;6307049;20;2771222;-52
2022/05/14 06:53:22;;;;;;;;;9.80;8.80;;;;;24.77;46.90;99859.72;6304592;20;2764867;-52
2022/05/14 06:55:56;;;;;;;;;7.33;7.33;;;;;25.06;43.87;99858.13;6282378;20;2756554;-53
2022/05/14 06:58:38;;;;;;;;;8.00;6.67;;;;;24.73;42.68;99864.75;6312696;20;2741968;-49
2022/05/14 07:01:08;;;;;;;;;6.67;6.67;;;;;24.94;41.17;99857.72;6319650;20;2745053;-52
2022/05/14 07:06:39;;;;;;;;;6.00;6.00;;;;;26.04;37.52;99862.72;6314434;20;2748163;-54
2022/05/14 07:09:24;;;;;;;;;5.20;5.20;;;;;25.29;35.23;99863.66;6337267;20;2726318;-54
2022/05/14 07:12:04;;;;;;;;;9.60;7.00;;;;;25.30;35.72;99868.09;6338679;20;2753488;-55
2022/05/14 07:14:33;;;;;;;;;6.00;5.00;;;;;26.21;33.16;99866.97;6304585;20;2729523;-53
2022/05/14 07:17:04;;;;;;;;;2.00;2.00;;;;;25.42;34.28;99852.88;6347151;20;2739836;-54
2022/05/14 07:19:36;;;;;;;;;6.40;4.60;;;;;26.04;33.95;99863.59;6305551;20;2748602;-53
2022/05/14 07:22:06;;;;;;;;;7.00;5.00;;;;;26.20;34.36;99872.69;6284266;20;2745074;-54
2022/05/14 07:24:35;;;;;;;;;4.40;4.40;;;;;26.25;32.94;99870.19;6338108;20;2742049;-54
2022/05/14 07:27:10;;;;;;;;;4.40;4.40;;;;;26.03;32.79;99870.13;6308404;20;2744100;-55
2022/05/14 07:29:42;;;;;;;;;4.00;4.00;;;;;25.71;32.85;99868.56;6305574;20;2748290;-54
2022/05/14 07:32:16;;;;;;;;;4.00;3.80;;;;;25.97;31.93;99870.03;6308039;20;2748257;-51
2022/05/14 07:34:46;;;;;;;;;3.00;3.00;;;;;25.75;32.51;99869.91;6308256;20;2739886;-52
2022/05/14 07:37:33;;;;;;;;;5.20;4.20;;;;;26.39;32.48;99874.84;6306739;20;2742959;-53
2022/05/14 07:40:13;;;;;;;;;2.80;2.80;;;;;25.80;33.99;99872.06;6304399;20;2754529;-53
2022/05/14 07:43:03;;;;;;;;;5.00;5.00;;;;;25.94;34.61;99867.66;6281346;20;2744131;-54
2022/05/14 07:45:45;;;;;;;;;7.80;6.60;;;;;25.99;34.50;99870.72;6335013;20;2731521;-54
2022/05/14 07:48:21;;;;;;;;;6.67;6.33;;;;;25.98;36.63;99863.47;6316532;20;2735671;-53
2022/05/14 07:50:51;;;;;;;;;8.00;8.00;;;;;25.14;37.19;99867.16;6310695;20;2756956;-56
2022/05/14 07:53:21;;;;;;;;;9.33;7.00;;;;;25.80;36.70;99872.94;6310797;20;2740869;-54
2022/05/14 07:55:51;;;;;;;;;7.00;7.00;;;;;26.37;35.83;99874.16;6336105;20;2737876;-58
2022/05/14 07:58:19;;;;;;;;;6.00;6.00;;;;;26.58;34.98;99869.78;6283381;20;2740907;-55
2022/05/14 08:00:48;;;;;;;;;6.33;6.00;;;;;26.98;35.38;99881.25;6312181;20;2741970;-52
2022/05/14 08:03:17;;;;;;;;;6.00;6.00;;;;;26.75;34.35;99871.25;6314089;20;2737758;-53
2022/05/14 08:05:45;;;;;;;;;7.00;6.00;;;;;26.33;34.97;99870.09;6314673;20;2734657;-50
2022/05/14 08:08:15;;;;;;;;;8.00;7.00;;;;;26.09;35.43;99875.91;6317752;20;2638804;-55
2022/05/14 08:10:43;;;;;;;;;7.00;7.00;;;;;25.86;35.94;99876.00;6313324;20;2746089;-49
2022/05/14 08:13:15;;;;;;;;;7.67;7.67;;;;;26.08;35.79;99875.06;6311765;20;2752461;-53
2022/05/14 08:15:48;;;;;;;;;6.20;5.20;;;;;25.81;36.30;99879.28;6338063;20;2739862;-53
2022/05/14 08:18:18;;;;;;;;;8.33;7.00;;;;;26.23;36.58;99881.41;6279813;20;2737747;-49
2022/05/14 08:20:50;;;;;;;;;9.00;9.00;;;;;25.44;36.75;99880.19;6310825;20;2751327;-49
2022/05/14 08:26:09;;;;;;;;;7.00;7.00;;;;;26.67;35.82;99877.75;6312711;20;2746109;-53
2022/05/14 08:28:38;;;;;;;;;6.60;6.60;;;;;27.00;33.57;99880.00;6336704;20;2735727;-51
2022/05/14 08:31:07;;;;;;;;;7.00;7.00;;;;;26.52;34.04;99876.09;6279962;20;2744029;-50
2022/05/14 08:33:35;;;;;;;;;8.00;7.00;;;;;26.61;34.19;99878.50;6307705;20;2748204;-55
2022/05/14 08:36:04;;;;;;;;;8.00;8.00;;;;;26.77;34.77;99873.81;6323914;20;2739896;-56
2022/05/14 08:38:33;;;;;;;;;10.00;8.40;;;;;27.08;34.61;99876.25;6343579;20;2771187;-55
2022/05/14 08:41:03;;;;;;;;;8.67;7.00;;;;;26.91;35.34;99876.53;6286145;20;2744038;-56
2022/05/14 08:44:07;;;;;;;;;10.00;8.00;;;;;25.70;36.28;99863.25;6318162;20;2767999;-54
2022/05/14 08:46:40;;;;;;;;;9.00;8.00;;;;;26.36;36.03;99877.97;6312998;20;2750397;-54
2022/05/14 08:49:33;;;;;;;;;8.33;8.33;;;;;25.90;36.14;99867.19;6323302;20;2748274;-55
2022/05/14 08:52:10;;;;;;;;;8.00;8.00;;;;;26.53;35.43;99866.78;6315352;20;2747754;-57
2022/05/14 08:54:38;;;;;;;;;7.00;7.00;;;;;26.35;35.87;99859.72;6318265;20;2748154;-56
2022/05/14 08:57:25;;;;;;;;;9.67;8.00;;;;;26.26;35.62;99866.41;6313612;20;2759654;-53
2022/05/14 08:59:59;;;;;;;;;7.60;5.60;;;;;25.19;38.39;99864.75;6339331;20;2739869;-55
2022/05/14 09:02:41;;;;;;;;;7.00;7.00;;;;;25.96;36.69;99877.44;6283556;20;2750314;-57
2022/05/14 09:05:28;;;;;;;;;8.20;6.80;;;;;26.11;36.12;99865.56;6342758;20;2753410;-56
2022/05/14 09:07:57;;;;;;;;;7.00;7.00;;;;;26.28;36.62;99864.31;6292929;20;2750241;-56
2022/05/14 09:10:41;;;;;;;;;9.67;8.00;;;;;26.96;35.33;99870.41;6316474;20;2752360;-55
2022/05/14 09:13:13;;;;;;;;;10.00;8.00;;;;;26.56;34.84;99856.22;6313162;20;2764828;-54
2022/05/14 09:15:59;;;;;;;;;8.00;8.00;;;;;25.94;35.31;99862.16;6322943;20;2739960;-54
2022/05/14 09:18:49;;;;;;;;;8.33;8.33;;;;;25.61;35.58;99851.47;6313987;20;3472160;-56
2022/05/14 09:21:35;;;;;;;;;9.00;7.00;;;;;26.03;35.19;99856.34;6317545;20;2757593;-54
2022/05/14 09:24:26;;;;;;;;;8.00;7.00;;;;;25.98;33.70;99868.97;6314372;20;2739984;-57
2022/05/14 09:27:11;;;;;;;;;8.00;8.00;;;;;25.78;33.75;99863.19;6313366;20;2754415;-57
2022/05/14 09:29:45;;;;;;;;;6.00;6.00;;;;;25.67;33.83;99863.63;6325419;20;2456489;-58
2022/05/14 09:32:44;;;;;;;;;7.00;7.00;;;;;25.83;33.95;99864.31;6314504;20;2742046;-57
2022/05/14 09:35:27;;;;;;;;;9.00;7.00;;;;;25.57;33.67;99870.25;6317601;20;2748304;-57
2022/05/14 09:38:23;;;;;;;;;8.20;6.80;;;;;25.82;32.72;99864.50;6340170;20;2748282;-54
2022/05/14 09:41:11;;;;;;;;;7.00;7.00;;;;;26.38;32.97;99870.34;6285080;20;2738235;-57
2022/05/14 09:43:40;;;;;;;;;6.60;6.00;;;;;26.00;32.77;99855.91;6339475;20;2739981;-54
2022/05/14 09:46:29;;;;;;;;;8.20;7.00;;;;;25.90;32.88;99858.91;6310252;20;2737790;-54
2022/05/14 09:49:09;;;;;;;;;6.40;5.00;;;;;26.23;32.42;99859.38;6339944;20;2730481;-56
2022/05/14 09:52:04;;;;;;;;;5.40;5.40;;;;;25.89;32.09;99851.72;6338887;20;2742046;-57
2022/05/14 09:54:50;;;;;;;;;7.00;6.00;;;;;26.87;32.79;99852.31;6281058;20;2728531;-57
2022/05/14 09:57:42;;;;;;;;;5.00;5.00;;;;;26.86;31.36;99856.13;6312490;20;2738815;-58
2022/05/14 10:00:24;;;;;;;;;7.00;7.00;;;;;25.79;31.73;99859.38;6310938;20;2735796;-56
2022/05/14 10:03:34;;;;;;;;;7.00;7.00;;;;;27.00;31.03;99857.09;6315522;20;2766957;-56
2022/05/14 10:06:51;;;;;;;;;7.00;5.00;;;;;26.63;30.31;99856.28;6312481;20;2738918;-54
2022/05/14 10:09:26;;;;;;;;;19.00;11.00;;;;;25.45;30.56;99849.75;6308386;20;2814323;-56
2022/05/14 10:12:26;;;;;;;;;5.40;5.40;;;;;26.43;31.22;99845.84;6305220;20;2739825;-56
2022/05/14 10:15:16;;;;;;;;;6.00;5.33;;;;;25.57;32.27;99842.75;6286096;20;2738798;-57
2022/05/14 10:18:09;;;;;;;;;6.00;6.00;;;;;26.26;31.20;99847.97;6337481;20;2744041;-57
2022/05/14 10:21:07;;;;;;;;;6.00;4.00;;;;;26.68;29.82;99840.03;6301674;20;2746104;-55
2022/05/14 10:27:51;;;;;;;;;5.40;5.40;;;;;27.11;30.60;99842.78;6337143;20;2727361;-55
2022/05/14 10:31:11;;;;;;;;;7.00;7.00;;;;;26.65;30.79;99837.69;6310941;20;2730448;-58
2022/05/14 10:33:42;;;;;;;;;5.00;5.00;;;;;26.58;30.45;99834.84;6333155;20;2739901;-57
2022/05/14 10:36:34;;;;;;;;;6.00;6.00;;;;;26.42;31.56;99833.13;6282881;20;2746155;-55
2022/05/14 10:39:19;;;;;;;;;5.80;5.80;;;;;26.28;30.28;99831.28;6337358;20;2744004;-55
2022/05/14 10:42:02;;;;;;;;;4.80;4.80;;;;;26.99;30.71;99836.09;6303901;20;2737836;-55
2022/05/14 10:44:34;;;;;;;;;3.67;3.67;;;;;26.39;29.85;99830.78;6279959;20;2735689;-59
2022/05/14 10:47:09;;;;;;;;;6.50;6.00;;;;;26.33;30.71;99834.31;6308792;20;2742983;-54
2022/05/14 10:50:09;;;;;;;;;50.67;30.67;;;;;26.26;31.91;99827.88;6305559;20;1904438;-51
2022/05/14 10:52:40;;;;;;;;;8.00;8.00;;;;;26.41;32.03;99820.44;6316859;20;2745110;-53
2022/05/14 10:55:45;;;;;;;;;12.67;9.67;;;;;26.75;30.66;99832.69;6310434;20;1900272;-49
2022/05/14 10:58:42;;;;;;;;;6.50;6.50;;;;;26.46;30.87;99819.81;6314782;20;2619068;-52
2022/05/14 11:01:46;;;;;;;;;6.67;6.00;;;;;26.70;30.06;99835.19;6311558;20;2736773;-52
2022/05/14 11:04:51;;;;;;;;;6.33;6.00;;;;;26.11;31.13;99824.28;6310058;20;2738796;-54
2022/05/14 11:07:48;;;;;;;;;6.00;6.00;;;;;26.33;30.47;99828.81;6311231;20;2733606;-57
2022/05/14 11:10:33;;;;;;;;;6.20;5.60;;;;;27.17;30.32;99825.47;6332286;20;2732540;-53
2022/05/14 11:13:24;;;;;;;;;7.00;7.00;;;;;26.79;31.24;99816.63;6336506;20;2749280;-58
2022/05/14 11:16:10;;;;;;;;;7.67;7.00;;;;;27.22;32.29;99814.72;6280948;20;2733735;-56
2022/05/14 11:18:53;;;;;;;;;8.00;6.00;;;;;27.66;30.73;99815.47;6310635;20;2739847;-57
2022/05/14 11:21:45;;;;;;;;;7.67;5.33;;;;;27.19;31.36;99815.13;6313238;20;2746146;-56
2022/05/14 11:24:16;;;;;;;;;6.67;6.67;;;;;26.00;31.36;99807.22;6309927;20;2742994;-53
2022/05/14 11:26:53;;;;;;;;;8.00;8.00;;;;;26.40;32.38;99799.44;6309320;20;2740890;-57
2022/05/14 11:29:29;;;;;;;;;8.20;6.60;;;;;26.96;31.04;99814.44;6334859;20;2745112;-55
2022/05/14 11:32:10;;;;;;;;;7.67;7.67;;;;;27.17;30.40;99803.44;6275061;20;2752417;-57
2022/05/14 11:34:58;;;;;;;;;7.00;7.00;;;;;26.99;29.65;99808.53;6307450;20;2746113;-54
2022/05/14 11:37:46;;;;;;;;;7.20;7.00;;;;;26.56;32.05;99805.78;6332743;20;2737772;-56
2022/05/14 11:40:22;;;;;;;;;5.20;5.20;;;;;26.41;30.51;99803.03;6301635;20;2738873;-57
2022/05/14 11:43:36;;;;;;;;;7.40;6.00;;;;;26.68;30.59;99798.72;6305161;20;2739891;-56
2022/05/14 11:46:19;;;;;;;;;7.67;7.00;;;;;26.70;29.83;99804.91;6281727;20;2736746;-53
2022/05/14 11:49:27;;;;;;;;;3.80;3.80;;;;;26.60;29.72;99794.19;6335777;20;2745206;-54
2022/05/14 11:52:17;;;;;;;;;6.67;6.67;;;;;26.90;29.76;99797.66;6283234;20;2743988;-55
2022/05/14 11:55:11;;;;;;;;;8.33;6.67;;;;;27.08;28.90;99793.56;6307651;20;2732580;-56
2022/05/14 11:58:07;;;;;;;;;8.40;7.00;;;;;26.57;30.11;99788.19;6332879;20;2751390;-57
2022/05/14 12:00:36;;;;;;;;;5.00;4.00;;;;;26.69;30.25;99789.41;6276197;20;2735703;-56